createdAt,value
2022-09-03T00:00:05.619Z,67.92
2022-09-03T00:02:46.249Z,67.84
2022-09-03T00:05:30.233Z,68.09
2022-09-03T00:08:10.670Z,68.24
2022-09-03T00:10:51.878Z,68.23
2022-09-03T00:13:45.460Z,68.23
2022-09-03T00:16:18.308Z,68.24
2022-09-03T00:18:59.995Z,67.81
2022-09-03T00:21:52.397Z,67.88
2022-09-03T00:24:24.000Z,68.00
2022-09-03T00:26:56.044Z,67.67
2022-09-03T00:29:35.813Z,68.04
2022-09-03T00:32:15.187Z,68.02
2022-09-03T00:34:47.392Z,67.48
2022-09-03T00:37:18.586Z,67.71
2022-09-03T00:39:46.645Z,67.85
2022-09-03T00:42:24.169Z,67.74
2022-09-03T00:45:06.869Z,67.56
2022-09-03T00:47:46.812Z,66.98
2022-09-03T00:50:29.715Z,67.53
2022-09-03T00:53:32.819Z,67.87
2022-09-03T00:56:25.194Z,67.87
2022-09-03T00:59:12.783Z,67.80
2022-09-03T01:01:51.371Z,67.45
2022-09-03T01:04:53.104Z,67.56
2022-09-03T01:07:36.240Z,67.56
2022-09-03T01:10:32.119Z,67.76
2022-09-03T01:13:24.353Z,68.09
2022-09-03T01:16:04.693Z,67.93
2022-09-03T01:18:40.101Z,67.74
2022-09-03T01:21:27.291Z,67.68
2022-09-03T01:24:11.308Z,67.05
2022-09-03T01:27:01.485Z,67.70
2022-09-03T01:29:48.315Z,67.80
2022-09-03T01:32:40.039Z,67.53
2022-09-03T01:35:31.766Z,67.18
2022-09-03T01:38:22.088Z,67.19
2022-09-03T01:41:39.100Z,67.69
2022-09-03T01:44:39.640Z,67.45
2022-09-03T01:47:17.033Z,67.25
2022-09-03T01:50:14.986Z,66.73
2022-09-03T01:53:09.002Z,67.38
2022-09-03T01:55:58.999Z,67.84
2022-09-03T01:58:44.876Z,67.66
2022-09-03T02:01:25.994Z,67.63
2022-09-03T02:04:00.268Z,67.91
2022-09-03T02:06:30.183Z,67.87
2022-09-03T02:08:58.250Z,67.57
2022-09-03T02:11:26.331Z,67.35
2022-09-03T02:13:57.809Z,67.66
2022-09-03T02:16:31.698Z,67.62
2022-09-03T02:19:07.862Z,67.76
2022-09-03T02:21:39.588Z,67.11
2022-09-03T02:24:10.208Z,67.20
2022-09-03T02:26:37.791Z,68.12
2022-09-03T02:29:05.959Z,67.79
2022-09-03T02:31:33.830Z,68.14
2022-09-03T02:34:01.227Z,67.74
2022-09-03T02:36:34.112Z,68.03
2022-09-03T02:39:01.848Z,68.16
2022-09-03T02:41:29.374Z,67.43
2022-09-03T02:44:09.261Z,67.68
2022-09-03T02:46:40.817Z,67.92
2022-09-03T02:49:09.497Z,68.14
2022-09-03T02:51:40.295Z,67.62
2022-09-03T02:54:11.803Z,67.79
2022-09-03T02:56:39.107Z,67.14
2022-09-03T02:59:08.797Z,67.57
2022-09-03T03:01:38.010Z,67.67
2022-09-03T03:04:06.198Z,68.29
2022-09-03T03:06:33.644Z,68.80
2022-09-03T03:09:02.045Z,68.36
2022-09-03T03:11:30.649Z,68.80
2022-09-03T03:13:58.964Z,68.74
2022-09-03T03:16:26.523Z,68.43
2022-09-03T03:18:57.197Z,68.20
2022-09-03T03:21:24.875Z,68.20
2022-09-03T03:23:52.463Z,68.39
2022-09-03T03:26:21.503Z,68.39
2022-09-03T03:28:57.156Z,68.22
2022-09-03T03:31:28.408Z,67.98
2022-09-03T03:33:58.767Z,68.28
2022-09-03T03:36:29.911Z,68.37
2022-09-03T03:38:59.379Z,68.57
2022-09-03T03:41:34.562Z,68.66
2022-09-03T03:44:07.341Z,68.57
2022-09-03T03:46:38.695Z,68.94
2022-09-03T03:49:06.873Z,68.97
2022-09-03T03:51:36.275Z,69.04
2022-09-03T03:54:05.503Z,69.00
2022-09-03T03:56:34.268Z,68.85
2022-09-03T03:59:02.768Z,68.20
2022-09-03T04:01:30.620Z,67.81
2022-09-03T04:04:00.519Z,68.02
2022-09-03T04:06:29.036Z,67.61
2022-09-03T04:08:59.353Z,67.54
2022-09-03T04:11:27.406Z,67.89
2022-09-03T04:13:55.078Z,68.25
2022-09-03T04:16:29.256Z,68.36
2022-09-03T04:18:57.798Z,68.16
2022-09-03T04:21:28.399Z,68.56
2022-09-03T04:23:57.678Z,68.86
2022-09-03T04:26:31.683Z,68.84
2022-09-03T04:29:01.973Z,69.28
2022-09-03T04:31:32.647Z,69.33
2022-09-03T04:34:06.008Z,69.75
2022-09-03T04:36:35.693Z,70.27
2022-09-03T04:39:03.302Z,70.52
2022-09-03T04:41:32.794Z,71.11
2022-09-03T04:44:01.028Z,71.40
2022-09-03T04:46:34.413Z,72.18
2022-09-03T04:49:02.638Z,73.20
2022-09-03T04:51:31.656Z,73.70
2022-09-03T04:54:04.638Z,74.29
2022-09-03T04:56:35.188Z,75.38
2022-09-03T04:59:06.348Z,76.11
2022-09-03T05:01:36.194Z,76.24
2022-09-03T05:04:05.437Z,77.27
2022-09-03T05:06:34.965Z,77.93
2022-09-03T05:09:06.241Z,78.08
2022-09-03T05:11:34.990Z,78.27
2022-09-03T05:14:03.703Z,78.16
2022-09-03T05:16:31.996Z,77.93
2022-09-03T05:19:01.543Z,78.31
2022-09-03T05:21:31.506Z,79.00
2022-09-03T05:24:01.921Z,79.54
2022-09-03T05:26:32.561Z,79.91
2022-09-03T05:29:02.720Z,80.77
2022-09-03T05:31:32.385Z,80.43
2022-09-03T05:34:06.514Z,79.35
2022-09-03T05:36:37.444Z,78.68
2022-09-03T05:39:09.181Z,78.79
2022-09-03T05:41:38.003Z,78.88
2022-09-03T05:44:06.280Z,79.81
2022-09-03T05:46:34.487Z,80.06
2022-09-03T05:49:03.747Z,80.97
2022-09-03T05:51:32.878Z,81.43
2022-09-03T05:54:00.667Z,79.78
2022-09-03T05:56:30.202Z,79.84
2022-09-03T05:59:03.259Z,80.49
2022-09-03T06:01:37.619Z,79.45
2022-09-03T06:04:11.990Z,79.30
2022-09-03T06:06:44.456Z,80.90
2022-09-03T06:09:18.256Z,82.07
2022-09-03T06:11:47.107Z,80.11
2022-09-03T06:14:15.214Z,80.65
2022-09-03T06:16:44.994Z,79.26
2022-09-03T06:19:14.149Z,80.72
2022-09-03T06:21:44.071Z,82.80
2022-09-03T06:24:26.468Z,82.77
2022-09-03T06:26:57.825Z,83.80
2022-09-03T06:29:25.372Z,83.92
2022-09-03T06:31:53.328Z,83.52
2022-09-03T06:34:22.849Z,83.03
2022-09-03T06:36:51.050Z,82.55
2022-09-03T06:39:18.667Z,81.29
2022-09-03T06:41:48.654Z,81.70
2022-09-03T06:44:28.181Z,81.58
2022-09-03T06:46:55.833Z,81.48
2022-09-03T06:49:25.354Z,81.11
2022-09-03T06:51:53.515Z,82.02
2022-09-03T06:54:21.102Z,83.17
2022-09-03T06:56:48.877Z,80.96
2022-09-03T06:59:16.437Z,80.71
2022-09-03T07:01:46.514Z,79.91
2022-09-03T07:04:20.504Z,79.05
2022-09-03T07:06:49.036Z,79.80
2022-09-03T07:09:19.596Z,79.10
2022-09-03T07:11:49.025Z,77.83
2022-09-03T07:14:21.030Z,78.52
2022-09-03T07:16:50.941Z,77.99
2022-09-03T07:19:19.578Z,76.98
2022-09-03T07:21:56.003Z,76.74
2022-09-03T07:24:26.042Z,72.75
2022-09-03T07:26:55.570Z,72.74
2022-09-03T07:29:24.021Z,75.91
2022-09-03T07:31:53.505Z,75.47
2022-09-03T07:34:26.740Z,74.64
2022-09-03T07:36:55.573Z,73.79
2022-09-03T07:39:24.588Z,73.96
2022-09-03T07:41:54.836Z,73.52
2022-09-03T07:44:23.985Z,73.28
2022-09-03T07:46:52.497Z,69.24
2022-09-03T07:49:22.560Z,68.35
2022-09-03T07:51:52.921Z,65.48
2022-09-03T07:54:22.666Z,65.75
2022-09-03T07:56:50.913Z,66.19
2022-09-03T07:59:20.046Z,68.16
2022-09-03T08:01:48.301Z,68.50
2022-09-03T08:04:16.721Z,69.03
2022-09-03T08:06:45.127Z,70.08
2022-09-03T08:09:14.296Z,67.35
2022-09-03T08:11:44.903Z,62.25
2022-09-03T08:14:16.880Z,66.89
2022-09-03T08:16:48.474Z,67.32
2022-09-03T08:19:26.912Z,60.92
2022-09-03T08:21:55.071Z,61.77
2022-09-03T08:24:27.722Z,64.77
2022-09-03T08:26:56.016Z,66.17
2022-09-03T08:29:24.385Z,65.62
2022-09-03T08:31:52.928Z,66.96
2022-09-03T08:34:22.316Z,67.31
2022-09-03T08:36:50.676Z,64.90
2022-09-03T08:39:19.343Z,61.72
2022-09-03T08:41:55.324Z,61.08
2022-09-03T08:44:50.745Z,65.80
2022-09-03T08:47:46.826Z,65.81
2022-09-03T08:50:40.387Z,62.61
2022-09-03T08:53:18.192Z,63.12
2022-09-03T08:56:03.829Z,63.07
2022-09-03T08:58:34.379Z,59.05
2022-09-03T09:01:14.452Z,62.15
2022-09-03T09:04:12.319Z,58.25
2022-09-03T09:07:08.617Z,60.74
2022-09-03T09:09:44.299Z,61.73
2022-09-03T09:12:46.559Z,60.36
2022-09-03T09:15:22.238Z,57.18
2022-09-03T09:18:03.143Z,57.62
2022-09-03T09:20:36.639Z,55.87
2022-09-03T09:23:08.310Z,59.56
2022-09-03T09:25:51.582Z,55.69
2022-09-03T09:28:25.133Z,57.98
2022-09-03T09:30:57.380Z,58.49
2022-09-03T09:33:25.949Z,59.51
2022-09-03T09:35:54.460Z,58.65
2022-09-03T09:38:33.228Z,58.44
2022-09-03T09:41:30.150Z,59.39
2022-09-03T09:44:02.592Z,58.96
2022-09-03T09:46:38.587Z,59.18
2022-09-03T09:49:33.847Z,58.88
2022-09-03T09:52:12.363Z,57.93
2022-09-03T09:54:46.439Z,57.63
2022-09-03T09:57:19.082Z,56.26
2022-09-03T09:59:48.357Z,54.37
2022-09-03T10:02:28.200Z,56.85
2022-09-03T10:05:16.849Z,59.21
2022-09-03T10:07:56.121Z,59.78
2022-09-03T10:10:23.791Z,58.74
2022-09-03T10:12:58.484Z,59.18
2022-09-03T10:15:38.347Z,57.65
2022-09-03T10:18:28.437Z,59.61
2022-09-03T10:21:06.764Z,57.71
2022-09-03T10:24:07.380Z,54.92
2022-09-03T10:26:37.246Z,51.34
2022-09-03T10:29:09.110Z,49.70
2022-09-03T10:31:54.272Z,52.15
2022-09-03T10:34:49.063Z,52.19
2022-09-03T10:37:30.173Z,51.52
2022-09-03T10:40:20.063Z,48.83
2022-09-03T10:43:21.940Z,48.20
2022-09-03T10:46:00.062Z,49.36
2022-09-03T10:48:52.801Z,48.92
2022-09-03T10:51:27.119Z,48.74
2022-09-03T10:54:16.893Z,50.34
2022-09-03T10:57:21.705Z,49.99
2022-09-03T11:00:13.084Z,52.64
2022-09-03T11:02:41.735Z,53.08
2022-09-03T11:05:18.888Z,53.58
2022-09-03T11:07:52.602Z,55.02
2022-09-03T11:10:31.259Z,53.72
2022-09-03T11:12:59.558Z,54.43
2022-09-03T11:15:38.421Z,54.64
2022-09-03T11:18:18.804Z,54.82
2022-09-03T11:20:50.839Z,55.51
2022-09-03T11:23:20.468Z,55.04
2022-09-03T11:25:59.747Z,53.52
2022-09-03T11:28:27.144Z,54.58
2022-09-03T11:31:17.957Z,54.35
2022-09-03T11:33:52.059Z,54.13
2022-09-03T11:36:34.590Z,53.73
2022-09-03T11:39:13.392Z,53.56
2022-09-03T11:41:41.623Z,54.81
2022-09-03T11:44:45.895Z,54.45
2022-09-03T11:47:24.704Z,54.88
2022-09-03T11:50:04.792Z,55.62
2022-09-03T11:52:32.963Z,57.38
2022-09-03T11:55:00.488Z,57.88
2022-09-03T11:57:30.905Z,56.48
2022-09-03T12:00:25.242Z,56.23
2022-09-03T12:02:59.200Z,56.70
2022-09-03T12:06:12.251Z,54.85
2022-09-03T12:08:58.148Z,60.50
2022-09-03T12:11:26.562Z,60.64
2022-09-03T12:14:25.341Z,60.03
2022-09-03T12:17:05.497Z,60.36
2022-09-03T12:19:55.883Z,58.31
2022-09-03T12:22:26.658Z,57.43
2022-09-03T12:25:16.286Z,55.72
2022-09-03T12:27:47.048Z,54.83
2022-09-03T12:30:18.370Z,55.09
2022-09-03T12:32:48.024Z,55.65
2022-09-03T12:38:08.987Z,55.04
2022-09-03T12:43:42.528Z,55.34
2022-09-03T12:46:16.422Z,55.95
2022-09-03T12:52:29.896Z,57.80
2022-09-03T12:55:08.969Z,59.05
2022-09-03T12:57:45.821Z,60.18
2022-09-03T13:00:16.396Z,60.19
2022-09-03T13:03:00.721Z,63.96
2022-09-03T13:05:37.522Z,63.19
2022-09-03T13:08:08.672Z,61.77
2022-09-03T13:10:43.406Z,62.54
2022-09-03T13:13:25.156Z,65.21
2022-09-03T13:16:05.908Z,65.45
2022-09-03T13:18:33.695Z,67.46
2022-09-03T13:21:16.378Z,67.20
2022-09-03T13:23:59.570Z,67.10
2022-09-03T13:26:46.060Z,67.26
2022-09-03T13:29:39.913Z,64.78
2022-09-03T13:32:28.555Z,65.92
2022-09-03T13:35:09.567Z,65.93
2022-09-03T13:37:43.594Z,66.39
2022-09-03T13:40:37.051Z,67.06
2022-09-03T13:43:37.406Z,66.89
2022-09-03T13:46:12.880Z,65.59
2022-09-03T13:49:04.301Z,66.50
2022-09-03T13:51:44.103Z,68.76
2022-09-03T13:54:12.209Z,69.03
2022-09-03T13:56:58.477Z,68.93
2022-09-03T13:59:50.421Z,68.56
2022-09-03T14:02:45.493Z,68.01
2022-09-03T14:05:22.309Z,66.99
2022-09-03T14:08:08.512Z,67.75
2022-09-03T14:10:54.839Z,69.15
2022-09-03T14:13:48.100Z,69.76
2022-09-03T14:16:37.634Z,69.82
2022-09-03T14:19:11.524Z,69.91
2022-09-03T14:22:00.979Z,71.60
2022-09-03T14:24:56.443Z,71.29
2022-09-03T14:27:27.209Z,70.89
2022-09-03T14:30:07.366Z,70.88
2022-09-03T14:32:51.475Z,71.39
2022-09-03T14:35:27.741Z,71.27
2022-09-03T14:38:10.483Z,70.96
2022-09-03T14:40:47.488Z,70.52
2022-09-03T14:43:49.446Z,70.61
2022-09-03T14:46:55.212Z,71.51
2022-09-03T14:49:54.450Z,71.18
2022-09-03T14:53:08.153Z,71.04
2022-09-03T14:55:54.021Z,71.08
2022-09-03T14:58:50.821Z,71.18
2022-09-03T15:01:38.726Z,70.70
2022-09-03T15:04:27.087Z,70.59
2022-09-03T15:07:31.183Z,70.98
2022-09-03T15:10:27.342Z,71.43
2022-09-03T15:13:10.926Z,70.34
2022-09-03T15:15:43.043Z,70.38
2022-09-03T15:18:47.402Z,69.54
2022-09-03T15:21:41.234Z,69.13
2022-09-03T15:24:28.175Z,69.32
2022-09-03T15:27:28.744Z,69.09
2022-09-03T15:30:21.947Z,69.41
2022-09-03T15:32:57.227Z,69.24
2022-09-03T15:35:30.914Z,69.00
2022-09-03T15:38:04.424Z,68.76
2022-09-03T15:41:00.707Z,68.39
2022-09-03T15:43:37.002Z,68.49
2022-09-03T15:46:15.145Z,68.47
2022-09-03T15:49:04.654Z,68.70
2022-09-03T15:51:35.527Z,68.49
2022-09-03T15:54:25.569Z,69.22
2022-09-03T15:57:03.571Z,69.47
2022-09-03T15:59:42.798Z,69.64
2022-09-03T16:02:21.459Z,68.99
2022-09-03T16:05:16.474Z,68.77
2022-09-03T16:07:56.990Z,69.11
2022-09-03T16:10:42.586Z,69.23
2022-09-03T16:13:30.089Z,68.98
2022-09-03T16:16:09.796Z,69.33
2022-09-03T16:18:41.320Z,68.99
2022-09-03T16:21:31.811Z,68.36
2022-09-03T16:24:05.676Z,68.76
2022-09-03T16:26:57.082Z,68.91
2022-09-03T16:29:31.317Z,68.62
2022-09-03T16:32:08.963Z,67.73
2022-09-03T16:35:00.806Z,67.33
2022-09-03T16:37:53.086Z,68.13
2022-09-03T16:40:37.510Z,68.29
2022-09-03T16:43:39.331Z,68.06
2022-09-03T16:46:25.053Z,68.35
2022-09-03T16:49:11.554Z,68.42
2022-09-03T16:52:11.233Z,67.84
2022-09-03T16:55:03.918Z,68.25
2022-09-03T16:57:58.507Z,67.96
2022-09-03T17:00:48.495Z,67.86
2022-09-03T17:03:26.033Z,68.37
2022-09-03T17:06:36.721Z,68.56
2022-09-03T17:09:29.274Z,67.40
2022-09-03T17:12:02.915Z,67.12
2022-09-03T17:14:45.048Z,66.82
2022-09-03T17:17:23.429Z,66.71
2022-09-03T17:20:13.928Z,66.94
2022-09-03T17:23:00.402Z,67.01
2022-09-03T17:25:36.398Z,67.18
2022-09-03T17:28:04.645Z,67.25
2022-09-03T17:30:56.475Z,67.69
2022-09-03T17:33:49.492Z,67.46
2022-09-03T17:36:19.888Z,67.79
2022-09-03T17:39:27.854Z,67.85
2022-09-03T17:42:02.146Z,67.53
2022-09-03T17:45:07.670Z,67.58
2022-09-03T17:48:05.914Z,67.98
2022-09-03T17:50:50.380Z,67.41
2022-09-03T17:53:27.692Z,67.49
2022-09-03T17:56:01.772Z,67.62
2022-09-03T17:58:48.938Z,67.65
2022-09-03T18:01:32.687Z,67.74
2022-09-03T18:04:14.351Z,68.11
2022-09-03T18:06:42.918Z,68.17
2022-09-03T18:09:16.919Z,68.09
2022-09-03T18:12:29.570Z,68.23
2022-09-03T18:15:07.664Z,67.94
2022-09-03T18:18:05.928Z,67.99
2022-09-03T18:21:22.895Z,68.44
2022-09-03T18:24:10.820Z,68.41
2022-09-03T18:27:28.200Z,68.33
2022-09-03T18:30:29.646Z,68.50
2022-09-03T18:33:16.698Z,67.86
2022-09-03T18:36:05.756Z,67.76
2022-09-03T18:38:58.193Z,68.28
2022-09-03T18:42:03.202Z,68.02
2022-09-03T18:45:30.064Z,67.68
2022-09-03T18:48:52.697Z,66.86
2022-09-03T18:51:57.289Z,66.35
2022-09-03T18:55:07.364Z,66.72
2022-09-03T18:58:04.916Z,66.32
2022-09-03T19:00:55.596Z,66.55
2022-09-03T19:03:55.776Z,66.76
2022-09-03T19:07:04.507Z,66.31
2022-09-03T19:10:21.064Z,68.60
2022-09-03T19:13:35.379Z,68.40
2022-09-03T19:16:55.825Z,68.24
2022-09-03T19:20:05.701Z,68.21
2022-09-03T19:22:58.598Z,68.94
2022-09-03T19:25:47.392Z,69.28
2022-09-03T19:28:48.612Z,68.59
2022-09-03T19:31:43.827Z,68.39
2022-09-03T19:34:46.406Z,66.99
2022-09-03T19:37:38.679Z,66.34
2022-09-03T19:40:53.684Z,67.45
2022-09-03T19:43:49.266Z,68.08
2022-09-03T19:46:48.330Z,66.26
2022-09-03T19:49:42.405Z,67.46
2022-09-03T19:52:57.531Z,68.18
2022-09-03T19:55:46.789Z,69.46
2022-09-03T19:58:45.587Z,69.56
2022-09-03T20:01:32.689Z,69.03
2022-09-03T20:04:36.078Z,68.22
2022-09-03T20:07:28.392Z,68.57
2022-09-03T20:10:19.128Z,68.84
2022-09-03T20:12:54.499Z,68.74
2022-09-03T20:15:28.128Z,68.75
2022-09-03T20:18:22.129Z,69.05
2022-09-03T20:20:58.467Z,68.88
2022-09-03T20:23:38.131Z,68.90
2022-09-03T20:26:25.475Z,68.77
2022-09-03T20:29:04.490Z,68.64
2022-09-03T20:31:50.538Z,68.87
2022-09-03T20:34:38.969Z,69.09
2022-09-03T20:37:10.221Z,68.88
2022-09-03T20:40:16.821Z,68.74
2022-09-03T20:43:08.355Z,68.87
2022-09-03T20:46:19.714Z,69.12
2022-09-03T20:49:11.734Z,69.19
2022-09-03T20:52:06.361Z,69.09
2022-09-03T20:55:21.906Z,69.13
2022-09-03T20:58:14.831Z,69.03
2022-09-03T21:00:49.443Z,69.42
2022-09-03T21:03:47.635Z,68.91
2022-09-03T21:06:34.482Z,68.80
2022-09-03T21:09:25.370Z,68.99
2022-09-03T21:12:07.380Z,69.12
2022-09-03T21:14:42.819Z,69.09
2022-09-03T21:17:31.623Z,68.33
2022-09-03T21:20:21.247Z,68.67
2022-09-03T21:23:00.715Z,68.83
2022-09-03T21:25:47.466Z,69.15
2022-09-03T21:28:22.728Z,69.20
2022-09-03T21:30:56.734Z,69.26
2022-09-03T21:33:29.055Z,69.04
2022-09-03T21:36:06.823Z,69.00
2022-09-03T21:38:37.702Z,69.36
2022-09-03T21:41:18.060Z,70.07
2022-09-03T21:43:53.006Z,69.98
2022-09-03T21:46:26.894Z,70.08
2022-09-03T21:49:06.467Z,70.27
2022-09-03T21:51:45.313Z,70.20
2022-09-03T21:54:40.435Z,70.25
2022-09-03T21:57:44.143Z,70.06
2022-09-03T22:00:22.444Z,70.22
2022-09-03T22:02:50.964Z,70.59
2022-09-03T22:05:19.274Z,70.64
2022-09-03T22:07:53.964Z,70.49
2022-09-03T22:10:34.933Z,70.26
2022-09-03T22:13:16.276Z,70.22
2022-09-03T22:15:50.767Z,70.17
2022-09-03T22:18:29.363Z,70.45
2022-09-03T22:21:13.701Z,70.63
2022-09-03T22:24:25.334Z,70.98
2022-09-03T22:27:18.669Z,71.05
2022-09-03T22:30:00.662Z,70.85
2022-09-03T22:33:05.512Z,70.67
2022-09-03T22:35:42.700Z,70.65
2022-09-03T22:38:12.996Z,70.54
2022-09-03T22:40:52.512Z,70.65
2022-09-03T22:43:43.995Z,70.60
2022-09-03T22:46:18.711Z,70.41
2022-09-03T22:49:29.198Z,70.36
2022-09-03T22:52:06.096Z,70.45
2022-09-03T22:54:46.785Z,70.65
2022-09-03T22:57:18.827Z,70.44
2022-09-03T23:00:10.657Z,70.27
2022-09-03T23:02:39.158Z,70.16
2022-09-03T23:05:23.935Z,70.55
2022-09-03T23:07:57.388Z,70.39
2022-09-03T23:10:31.583Z,70.46
2022-09-03T23:13:16.344Z,70.30
2022-09-03T23:15:52.474Z,70.25
2022-09-03T23:18:27.237Z,70.35
2022-09-03T23:21:23.827Z,70.47
2022-09-03T23:24:14.615Z,70.38
2022-09-03T23:26:47.209Z,70.46
2022-09-03T23:29:27.562Z,70.38
2022-09-03T23:31:58.377Z,70.63
2022-09-03T23:34:27.745Z,70.47
2022-09-03T23:37:39.034Z,70.61
2022-09-03T23:40:22.842Z,70.39
2022-09-03T23:43:12.512Z,70.57
2022-09-03T23:46:18.148Z,70.49
2022-09-03T23:48:58.347Z,70.40
2022-09-03T23:51:47.293Z,70.24
2022-09-03T23:54:30.957Z,69.71
2022-09-03T23:57:11.352Z,69.61
2022-09-03T23:59:58.724Z,69.83
